sensor_id;sensor_type;location;lat;lon;timestamp;pressure;altitude;pressure_sealevel;temperature;humidity
56400;BME280;42298;53.638;9.876;2022-10-23T00:02:18;101354.16;;;16.76;71.56
56400;BME280;42298;53.638;9.876;2022-10-23T00:04:44;101352.53;;;16.75;70.83
56400;BME280;42298;53.638;9.876;2022-10-23T00:07:09;101350.25;;;16.77;71.42
56400;BME280;42298;53.638;9.876;2022-10-23T00:09:34;101364.59;;;16.79;70.84
56400;BME280;42298;53.638;9.876;2022-10-23T00:12:00;101352.59;;;16.67;71.78
56400;BME280;42298;53.638;9.876;2022-10-23T00:14:25;101355.03;;;16.68;71.33
56400;BME280;42298;53.638;9.876;2022-10-23T00:16:50;101356.66;;;16.69;70.97
56400;BME280;42298;53.638;9.876;2022-10-23T00:19:16;101357.16;;;16.63;71.20
56400;BME280;42298;53.638;9.876;2022-10-23T00:21:41;101370.94;;;16.59;71.35
56400;BME280;42298;53.638;9.876;2022-10-23T00:24:07;101370.47;;;16.57;71.13
56400;BME280;42298;53.638;9.876;2022-10-23T00:26:32;101355.63;;;16.45;70.84
56400;BME280;42298;53.638;9.876;2022-10-23T00:28:58;101366.75;;;16.45;70.47
56400;BME280;42298;53.638;9.876;2022-10-23T00:31:23;101363.44;;;16.51;69.95
56400;BME280;42298;53.638;9.876;2022-10-23T00:33:49;101356.94;;;16.47;70.58
56400;BME280;42298;53.638;9.876;2022-10-23T00:36:17;101366.41;;;16.55;70.47
56400;BME280;42298;53.638;9.876;2022-10-23T00:38:43;101358.75;;;16.43;70.94
56400;BME280;42298;53.638;9.876;2022-10-23T00:41:14;101370.34;;;16.45;71.66
56400;BME280;42298;53.638;9.876;2022-10-23T00:46:25;101362.44;;;16.56;71.98
56400;BME280;42298;53.638;9.876;2022-10-23T00:48:51;101357.84;;;16.60;72.16
56400;BME280;42298;53.638;9.876;2022-10-23T00:51:17;101369.50;;;16.53;71.71
56400;BME280;42298;53.638;9.876;2022-10-23T00:53:43;101365.22;;;16.56;71.73
56400;BME280;42298;53.638;9.876;2022-10-23T00:56:10;101374.56;;;16.51;72.37
56400;BME280;42298;53.638;9.876;2022-10-23T00:58:36;101365.28;;;16.47;72.38
56400;BME280;42298;53.638;9.876;2022-10-23T01:01:13;101362.66;;;16.42;72.27
56400;BME280;42298;53.638;9.876;2022-10-23T01:03:39;101366.91;;;16.48;71.98
56400;BME280;42298;53.638;9.876;2022-10-23T01:08:48;101359.28;;;16.66;70.62
56400;BME280;42298;53.638;9.876;2022-10-23T01:11:26;101361.44;;;16.60;70.37
56400;BME280;42298;53.638;9.876;2022-10-23T01:14:04;101363.13;;;16.53;70.62
56400;BME280;42298;53.638;9.876;2022-10-23T01:16:45;101363.78;;;16.50;70.59
56400;BME280;42298;53.638;9.876;2022-10-23T01:24:50;101339.13;;;16.40;70.41
56400;BME280;42298;53.638;9.876;2022-10-23T01:27:23;101352.34;;;16.51;71.02
56400;BME280;42298;53.638;9.876;2022-10-23T01:30:10;101352.66;;;16.50;69.65
56400;BME280;42298;53.638;9.876;2022-10-23T01:35:19;101348.13;;;16.37;69.96
56400;BME280;42298;53.638;9.876;2022-10-23T01:37:51;101344.91;;;16.26;70.67
56400;BME280;42298;53.638;9.876;2022-10-23T01:40:26;101358.97;;;16.30;70.83
56400;BME280;42298;53.638;9.876;2022-10-23T01:42:57;101345.06;;;16.21;71.08
56400;BME280;42298;53.638;9.876;2022-10-23T01:45:37;101357.13;;;16.34;71.35
56400;BME280;42298;53.638;9.876;2022-10-23T01:48:05;101349.47;;;16.31;70.70
56400;BME280;42298;53.638;9.876;2022-10-23T01:50:34;101345.53;;;16.32;70.67
56400;BME280;42298;53.638;9.876;2022-10-23T01:53:02;101355.00;;;16.31;70.44
56400;BME280;42298;53.638;9.876;2022-10-23T01:55:29;101354.06;;;16.27;70.67
56400;BME280;42298;53.638;9.876;2022-10-23T01:57:55;101340.50;;;16.25;70.27
56400;BME280;42298;53.638;9.876;2022-10-23T02:00:21;101332.16;;;16.25;70.58
56400;BME280;42298;53.638;9.876;2022-10-23T02:02:47;101326.72;;;16.37;70.51
56400;BME280;42298;53.638;9.876;2022-10-23T02:05:17;101336.81;;;16.50;69.81
56400;BME280;42298;53.638;9.876;2022-10-23T02:07:45;101328.47;;;16.42;68.92
56400;BME280;42298;53.638;9.876;2022-10-23T02:10:11;101324.25;;;16.36;70.01
56400;BME280;42298;53.638;9.876;2022-10-23T02:12:58;101333.41;;;16.36;70.58
56400;BME280;42298;53.638;9.876;2022-10-23T02:18:43;101338.03;;;16.24;71.16
56400;BME280;42298;53.638;9.876;2022-10-23T02:21:17;101327.94;;;16.19;71.45
56400;BME280;42298;53.638;9.876;2022-10-23T02:23:45;101322.31;;;16.28;70.08
56400;BME280;42298;53.638;9.876;2022-10-23T02:26:23;101324.50;;;16.22;70.72
56400;BME280;42298;53.638;9.876;2022-10-23T02:29:00;101318.59;;;16.24;70.44
56400;BME280;42298;53.638;9.876;2022-10-23T02:31:28;101321.38;;;16.15;70.59
56400;BME280;42298;53.638;9.876;2022-10-23T02:33:53;101327.59;;;16.12;71.45
56400;BME280;42298;53.638;9.876;2022-10-23T02:36:19;101331.22;;;16.13;71.11
56400;BME280;42298;53.638;9.876;2022-10-23T02:38:44;101328.16;;;16.06;71.08
56400;BME280;42298;53.638;9.876;2022-10-23T02:44:05;101335.63;;;16.14;71.31
56400;BME280;42298;53.638;9.876;2022-10-23T02:49:13;101340.88;;;16.07;71.34
56400;BME280;42298;53.638;9.876;2022-10-23T02:59:45;101334.81;;;16.13;71.04
56400;BME280;42298;53.638;9.876;2022-10-23T03:04:41;101332.38;;;16.03;71.38
56400;BME280;42298;53.638;9.876;2022-10-23T03:07:12;101335.31;;;16.07;70.95
56400;BME280;42298;53.638;9.876;2022-10-23T03:09:37;101321.94;;;16.00;70.89
56400;BME280;42298;53.638;9.876;2022-10-23T03:12:03;101311.47;;;15.97;71.16
56400;BME280;42298;53.638;9.876;2022-10-23T03:14:28;101326.03;;;16.03;70.45
56400;BME280;42298;53.638;9.876;2022-10-23T03:16:53;101305.47;;;15.95;69.67
56400;BME280;42298;53.638;9.876;2022-10-23T03:19:19;101307.78;;;15.85;69.91
56400;BME280;42298;53.638;9.876;2022-10-23T03:21:44;101313.84;;;15.78;70.53
56400;BME280;42298;53.638;9.876;2022-10-23T03:24:09;101317.09;;;15.80;70.64
56400;BME280;42298;53.638;9.876;2022-10-23T03:26:34;101309.94;;;15.71;70.69
56400;BME280;42298;53.638;9.876;2022-10-23T03:29:00;101317.44;;;15.79;70.54
56400;BME280;42298;53.638;9.876;2022-10-23T03:31:25;101324.78;;;15.83;70.34
56400;BME280;42298;53.638;9.876;2022-10-23T03:33:50;101328.03;;;15.85;70.74
56400;BME280;42298;53.638;9.876;2022-10-23T03:36:15;101326.41;;;15.84;69.41
56400;BME280;42298;53.638;9.876;2022-10-23T03:38:41;101319.38;;;15.78;69.78
56400;BME280;42298;53.638;9.876;2022-10-23T03:41:06;101311.56;;;15.80;70.34
56400;BME280;42298;53.638;9.876;2022-10-23T03:43:31;101303.22;;;15.80;69.87
56400;BME280;42298;53.638;9.876;2022-10-23T03:45:56;101313.66;;;15.75;70.12
56400;BME280;42298;53.638;9.876;2022-10-23T03:48:22;101313.34;;;15.76;70.06
56400;BME280;42298;53.638;9.876;2022-10-23T03:50:48;101299.97;;;15.70;68.82
56400;BME280;42298;53.638;9.876;2022-10-23T03:53:14;101311.88;;;15.70;68.96
56400;BME280;42298;53.638;9.876;2022-10-23T03:55:39;101316.97;;;15.68;68.73
56400;BME280;42298;53.638;9.876;2022-10-23T03:58:05;101309.47;;;15.60;69.57
56400;BME280;42298;53.638;9.876;2022-10-23T04:00:30;101315.50;;;15.62;69.30
56400;BME280;42298;53.638;9.876;2022-10-23T04:02:55;101309.44;;;15.69;69.25
56400;BME280;42298;53.638;9.876;2022-10-23T04:05:20;101312.38;;;15.72;68.98
56400;BME280;42298;53.638;9.876;2022-10-23T04:07:46;101309.09;;;15.70;69.23
56400;BME280;42298;53.638;9.876;2022-10-23T04:10:12;101307.31;;;15.66;69.11
56400;BME280;42298;53.638;9.876;2022-10-23T04:12:37;101295.56;;;15.60;69.08
56400;BME280;42298;53.638;9.876;2022-10-23T04:15:03;101309.28;;;15.65;68.93
56400;BME280;42298;53.638;9.876;2022-10-23T04:17:28;101300.63;;;15.58;68.49
56400;BME280;42298;53.638;9.876;2022-10-23T04:19:54;101299.66;;;15.54;69.22
56400;BME280;42298;53.638;9.876;2022-10-23T04:22:19;101306.38;;;15.53;69.22
56400;BME280;42298;53.638;9.876;2022-10-23T04:24:44;101299.84;;;15.49;68.63
56400;BME280;42298;53.638;9.876;2022-10-23T04:27:12;101305.56;;;15.53;68.93
56400;BME280;42298;53.638;9.876;2022-10-23T04:29:37;101296.59;;;15.47;69.30
56400;BME280;42298;53.638;9.876;2022-10-23T04:32:06;101288.25;;;15.47;68.87
56400;BME280;42298;53.638;9.876;2022-10-23T04:34:31;101286.94;;;15.45;68.82
56400;BME280;42298;53.638;9.876;2022-10-23T04:36:57;101289.91;;;15.40;68.53
56400;BME280;42298;53.638;9.876;2022-10-23T04:39:22;101279.44;;;15.28;68.34
56400;BME280;42298;53.638;9.876;2022-10-23T04:41:47;101286.78;;;15.24;68.08
56400;BME280;42298;53.638;9.876;2022-10-23T04:44:13;101275.69;;;15.15;68.23
56400;BME280;42298;53.638;9.876;2022-10-23T04:46:38;101277.63;;;15.15;68.95
56400;BME280;42298;53.638;9.876;2022-10-23T04:49:03;101276.66;;;15.11;67.97
56400;BME280;42298;53.638;9.876;2022-10-23T04:51:29;101272.94;;;15.07;68.62
56400;BME280;42298;53.638;9.876;2022-10-23T04:53:54;101286.44;;;15.00;68.27
56400;BME280;42298;53.638;9.876;2022-10-23T04:56:19;101277.31;;;14.91;69.42
56400;BME280;42298;53.638;9.876;2022-10-23T04:58:44;101287.09;;;14.97;69.26
56400;BME280;42298;53.638;9.876;2022-10-23T05:01:10;101288.56;;;14.94;68.37
56400;BME280;42298;53.638;9.876;2022-10-23T05:03:36;101284.31;;;14.97;68.92
56400;BME280;42298;53.638;9.876;2022-10-23T05:06:02;101277.31;;;14.91;68.79
56400;BME280;42298;53.638;9.876;2022-10-23T05:08:28;101280.44;;;14.98;68.57
56400;BME280;42298;53.638;9.876;2022-10-23T05:10:54;101275.38;;;14.83;68.99
56400;BME280;42298;53.638;9.876;2022-10-23T05:13:19;101286.47;;;14.83;69.12
56400;BME280;42298;53.638;9.876;2022-10-23T05:15:48;101280.25;;;14.86;68.98
56400;BME280;42298;53.638;9.876;2022-10-23T05:18:22;101272.28;;;14.84;68.57
56400;BME280;42298;53.638;9.876;2022-10-23T05:20:54;101269.00;;;14.74;68.71
56400;BME280;42298;53.638;9.876;2022-10-23T05:23:23;101286.28;;;14.79;69.72
56400;BME280;42298;53.638;9.876;2022-10-23T05:25:49;101264.75;;;14.76;69.80
56400;BME280;42298;53.638;9.876;2022-10-23T05:28:14;101268.34;;;14.77;68.63
56400;BME280;42298;53.638;9.876;2022-10-23T05:30:40;101267.03;;;14.74;68.08
56400;BME280;42298;53.638;9.876;2022-10-23T05:33:06;101273.06;;;14.68;68.69
56400;BME280;42298;53.638;9.876;2022-10-23T05:35:32;101281.06;;;14.69;68.20
56400;BME280;42298;53.638;9.876;2022-10-23T05:37:58;101268.16;;;14.65;68.56
56400;BME280;42298;53.638;9.876;2022-10-23T05:40:25;101268.81;;;14.62;68.62
56400;BME280;42298;53.638;9.876;2022-10-23T05:42:51;101262.78;;;14.68;68.63
56400;BME280;42298;53.638;9.876;2022-10-23T05:45:16;101267.53;;;14.68;68.63
56400;BME280;42298;53.638;9.876;2022-10-23T05:47:45;101271.78;;;14.74;68.95
56400;BME280;42298;53.638;9.876;2022-10-23T05:50:11;101252.66;;;14.64;68.72
56400;BME280;42298;53.638;9.876;2022-10-23T05:52:36;101267.03;;;14.66;68.76
56400;BME280;42298;53.638;9.876;2022-10-23T05:55:02;101259.03;;;14.56;68.23
56400;BME280;42298;53.638;9.876;2022-10-23T05:57:27;101280.19;;;14.52;67.90
56400;BME280;42298;53.638;9.876;2022-10-23T05:59:52;101279.22;;;14.48;68.37
56400;BME280;42298;53.638;9.876;2022-10-23T06:02:18;101277.09;;;14.45;69.46
56400;BME280;42298;53.638;9.876;2022-10-23T06:04:43;101273.03;;;14.51;68.19
56400;BME280;42298;53.638;9.876;2022-10-23T06:07:08;101271.41;;;14.50;68.25
56400;BME280;42298;53.638;9.876;2022-10-23T06:09:34;101277.09;;;14.45;68.98
56400;BME280;42298;53.638;9.876;2022-10-23T06:12:00;101283.13;;;14.47;69.78
56400;BME280;42298;53.638;9.876;2022-10-23T06:14:26;101274.63;;;14.43;69.39
56400;BME280;42298;53.638;9.876;2022-10-23T06:16:52;101279.34;;;14.43;69.27
56400;BME280;42298;53.638;9.876;2022-10-23T06:19:17;101278.38;;;14.47;69.60
56400;BME280;42298;53.638;9.876;2022-10-23T06:21:43;101270.56;;;14.41;68.93
56400;BME280;42298;53.638;9.876;2022-10-23T06:24:08;101277.72;;;14.42;69.12
56400;BME280;42298;53.638;9.876;2022-10-23T06:26:33;101287.66;;;14.43;70.04
56400;BME280;42298;53.638;9.876;2022-10-23T06:28:59;101279.34;;;14.43;70.49
56400;BME280;42298;53.638;9.876;2022-10-23T06:31:24;101279.84;;;14.45;70.58
56400;BME280;42298;53.638;9.876;2022-10-23T06:33:55;101284.28;;;14.54;70.50
56400;BME280;42298;53.638;9.876;2022-10-23T06:36:21;101271.09;;;14.60;70.04
56400;BME280;42298;53.638;9.876;2022-10-23T06:38:46;101274.34;;;14.62;70.83
56400;BME280;42298;53.638;9.876;2022-10-23T06:41:16;101275.19;;;14.71;71.03
56400;BME280;42298;53.638;9.876;2022-10-23T06:43:41;101269.47;;;14.76;70.48
56400;BME280;42298;53.638;9.876;2022-10-23T06:46:07;101280.91;;;14.83;70.08
56400;BME280;42298;53.638;9.876;2022-10-23T06:48:32;101274.41;;;14.87;70.87
56400;BME280;42298;53.638;9.876;2022-10-23T06:51:02;101274.72;;;14.94;70.30
56400;BME280;42298;53.638;9.876;2022-10-23T06:53:28;101268.66;;;14.92;70.62
56400;BME280;42298;53.638;9.876;2022-10-23T06:55:58;101267.03;;;15.00;70.68
56400;BME280;42298;53.638;9.876;2022-10-23T06:58:24;101262.47;;;14.95;71.04
56400;BME280;42298;53.638;9.876;2022-10-23T07:00:49;101260.84;;;15.03;70.53
56400;BME280;42298;53.638;9.876;2022-10-23T07:03:16;101262.28;;;15.09;70.55
56400;BME280;42298;53.638;9.876;2022-10-23T07:05:42;101258.53;;;15.13;70.71
56400;BME280;42298;53.638;9.876;2022-10-23T07:08:09;101268.00;;;15.21;71.06
56400;BME280;42298;53.638;9.876;2022-10-23T07:10:35;101267.69;;;15.31;71.40
56400;BME280;42298;53.638;9.876;2022-10-23T07:13:00;101268.53;;;15.40;71.02
56400;BME280;42298;53.638;9.876;2022-10-23T07:15:27;101266.84;;;15.48;70.96
56400;BME280;42298;53.638;9.876;2022-10-23T07:17:54;101266.53;;;15.49;70.95
56400;BME280;42298;53.638;9.876;2022-10-23T07:20:19;101276.47;;;15.59;70.99
56400;BME280;42298;53.638;9.876;2022-10-23T07:22:52;101279.25;;;15.59;71.02
56400;BME280;42298;53.638;9.876;2022-10-23T07:25:18;101275.50;;;15.55;71.74
56400;BME280;42298;53.638;9.876;2022-10-23T07:27:46;101281.34;;;15.70;70.77
56400;BME280;42298;53.638;9.876;2022-10-23T07:30:12;101278.41;;;15.67;71.07
56400;BME280;42298;53.638;9.876;2022-10-23T07:32:37;101294.69;;;15.85;70.66
56400;BME280;42298;53.638;9.876;2022-10-23T07:35:03;101292.22;;;15.92;71.06
56400;BME280;42298;53.638;9.876;2022-10-23T07:37:29;101290.06;;;15.98;70.45
56400;BME280;42298;53.638;9.876;2022-10-23T07:39:54;101292.38;;;15.96;71.11
56400;BME280;42298;53.638;9.876;2022-10-23T07:42:20;101291.34;;;16.09;70.81
56400;BME280;42298;53.638;9.876;2022-10-23T07:44:45;101284.47;;;16.15;70.60
56400;BME280;42298;53.638;9.876;2022-10-23T07:47:10;101287.03;;;16.28;70.52
56400;BME280;42298;53.638;9.876;2022-10-23T07:49:36;101284.78;;;16.42;69.50
56400;BME280;42298;53.638;9.876;2022-10-23T07:52:03;101287.84;;;16.58;70.11
56400;BME280;42298;53.638;9.876;2022-10-23T07:54:29;101279.31;;;16.63;69.49
56400;BME280;42298;53.638;9.876;2022-10-23T07:56:54;101284.34;;;16.69;69.66
56400;BME280;42298;53.638;9.876;2022-10-23T07:59:19;101289.50;;;16.79;69.96
56400;BME280;42298;53.638;9.876;2022-10-23T08:01:45;101280.44;;;16.91;69.13
56400;BME280;42298;53.638;9.876;2022-10-23T08:04:12;101266.19;;;16.92;69.52
56400;BME280;42298;53.638;9.876;2022-10-23T08:06:37;101268.41;;;16.99;69.27
56400;BME280;42298;53.638;9.876;2022-10-23T08:09:02;101263.13;;;17.06;69.00
56400;BME280;42298;53.638;9.876;2022-10-23T08:11:28;101261.75;;;17.12;68.78
56400;BME280;42298;53.638;9.876;2022-10-23T08:13:59;101267.25;;;17.21;68.92
56400;BME280;42298;53.638;9.876;2022-10-23T08:16:26;101260.31;;;17.27;69.30
56400;BME280;42298;53.638;9.876;2022-10-23T08:18:52;101264.31;;;17.38;68.81
56400;BME280;42298;53.638;9.876;2022-10-23T08:21:18;101260.19;;;17.44;67.96
56400;BME280;42298;53.638;9.876;2022-10-23T08:23:43;101262.97;;;17.56;68.59
56400;BME280;42298;53.638;9.876;2022-10-23T08:26:10;101261.19;;;17.72;68.76
56400;BME280;42298;53.638;9.876;2022-10-23T08:28:36;101268.19;;;17.90;68.49
56400;BME280;42298;53.638;9.876;2022-10-23T08:31:09;101261.69;;;18.10;67.70
56400;BME280;42298;53.638;9.876;2022-10-23T08:33:36;101254.03;;;18.19;67.63
56400;BME280;42298;53.638;9.876;2022-10-23T08:36:01;101253.97;;;18.39;67.20
56400;BME280;42298;53.638;9.876;2022-10-23T08:38:27;101262.75;;;18.53;66.19
56400;BME280;42298;53.638;9.876;2022-10-23T08:40:52;101247.75;;;18.58;65.85
56400;BME280;42298;53.638;9.876;2022-10-23T08:43:24;101242.75;;;18.63;65.70
56400;BME280;42298;53.638;9.876;2022-10-23T08:46:00;101259.94;;;18.65;65.60
56400;BME280;42298;53.638;9.876;2022-10-23T08:48:30;101252.59;;;18.85;66.77
56400;BME280;42298;53.638;9.876;2022-10-23T08:51:13;101244.13;;;19.09;64.93
56400;BME280;42298;53.638;9.876;2022-10-23T08:53:48;101251.75;;;19.36;64.56
56400;BME280;42298;53.638;9.876;2022-10-23T08:56:27;101236.94;;;19.36;64.45
56400;BME280;42298;53.638;9.876;2022-10-23T09:02:02;101241.19;;;19.18;63.55
56400;BME280;42298;53.638;9.876;2022-10-23T09:04:28;101239.72;;;19.08;64.33
56400;BME280;42298;53.638;9.876;2022-10-23T09:12:23;101228.50;;;19.20;64.50
56400;BME280;42298;53.638;9.876;2022-10-23T09:17:57;101225.16;;;19.42;64.04
56400;BME280;42298;53.638;9.876;2022-10-23T09:20:32;101218.88;;;19.45;63.44
56400;BME280;42298;53.638;9.876;2022-10-23T09:23:03;101214.06;;;19.30;63.45
56400;BME280;42298;53.638;9.876;2022-10-23T09:25:37;101222.31;;;19.27;64.03
56400;BME280;42298;53.638;9.876;2022-10-23T09:28:03;101218.97;;;19.21;63.75
56400;BME280;42298;53.638;9.876;2022-10-23T09:30:30;101226.13;;;19.34;63.70
56400;BME280;42298;53.638;9.876;2022-10-23T09:32:56;101217.88;;;19.26;63.48
56400;BME280;42298;53.638;9.876;2022-10-23T09:35:24;101231.00;;;19.37;63.07
56400;BME280;42298;53.638;9.876;2022-10-23T09:37:50;101232.06;;;19.33;63.50
56400;BME280;42298;53.638;9.876;2022-10-23T09:40:31;101232.13;;;19.48;62.99
56400;BME280;42298;53.638;9.876;2022-10-23T09:43:03;101235.47;;;19.54;62.92
56400;BME280;42298;53.638;9.876;2022-10-23T09:45:33;101231.41;;;19.67;63.30
56400;BME280;42298;53.638;9.876;2022-10-23T09:50:36;101225.75;;;19.79;63.36
56400;BME280;42298;53.638;9.876;2022-10-23T09:53:02;101238.84;;;19.90;63.03
56400;BME280;42298;53.638;9.876;2022-10-23T09:55:27;101245.34;;;19.94;61.85
56400;BME280;42298;53.638;9.876;2022-10-23T09:57:53;101239.38;;;19.96;62.16
56400;BME280;42298;53.638;9.876;2022-10-23T10:00:24;101246.84;;;20.07;61.90
56400;BME280;42298;53.638;9.876;2022-10-23T10:02:59;101235.97;;;20.02;61.74
56400;BME280;42298;53.638;9.876;2022-10-23T10:08:04;101233.72;;;20.23;61.59
56400;BME280;42298;53.638;9.876;2022-10-23T10:10:41;101227.03;;;20.12;61.37
56400;BME280;42298;53.638;9.876;2022-10-23T10:15:49;101217.00;;;20.11;61.44
56400;BME280;42298;53.638;9.876;2022-10-23T10:18:25;101208.63;;;20.11;62.14
56400;BME280;42298;53.638;9.876;2022-10-23T10:37:20;101190.38;;;20.33;61.17
56400;BME280;42298;53.638;9.876;2022-10-23T10:42:40;101170.38;;;20.31;61.27
56400;BME280;42298;53.638;9.876;2022-10-23T10:45:18;101162.75;;;20.31;61.72
56400;BME280;42298;53.638;9.876;2022-10-23T10:50:31;101157.63;;;20.33;61.53
56400;BME280;42298;53.638;9.876;2022-10-23T10:56:09;101153.75;;;20.22;61.44
56400;BME280;42298;53.638;9.876;2022-10-23T10:58:45;101147.50;;;20.44;61.23
56400;BME280;42298;53.638;9.876;2022-10-23T11:01:34;101160.56;;;20.40;61.62
56400;BME280;42298;53.638;9.876;2022-10-23T11:04:10;101148.66;;;20.43;nan
56400;BME280;42298;53.638;9.876;2022-10-23T11:06:38;101143.06;;;20.62;61.42
56400;BME280;42298;53.638;9.876;2022-10-23T11:09:24;101155.28;;;20.93;61.15
56400;BME280;42298;53.638;9.876;2022-10-23T11:11:50;101132.34;;;21.03;60.41
56400;BME280;42298;53.638;9.876;2022-10-23T11:14:18;101137.25;;;21.09;60.32
56400;BME280;42298;53.638;9.876;2022-10-23T11:17:02;101141.19;;;21.27;60.42
56400;BME280;42298;53.638;9.876;2022-10-23T11:22:18;101131.25;;;21.30;59.94
56400;BME280;42298;53.638;9.876;2022-10-23T11:25:07;101129.03;;;21.39;60.10
56400;BME280;42298;53.638;9.876;2022-10-23T11:34:25;101116.19;;;21.38;58.98
56400;BME280;42298;53.638;9.876;2022-10-23T11:36:57;101112.97;;;21.36;59.36
56400;BME280;42298;53.638;9.876;2022-10-23T11:39:27;101098.00;;;21.28;59.89
56400;BME280;42298;53.638;9.876;2022-10-23T11:41:58;101089.97;;;21.27;59.36
56400;BME280;42298;53.638;9.876;2022-10-23T11:44:45;101093.75;;;21.38;59.00
56400;BME280;42298;53.638;9.876;2022-10-23T11:47:33;101087.94;;;21.46;58.60
56400;BME280;42298;53.638;9.876;2022-10-23T11:52:31;101076.06;;;21.56;59.44
56400;BME280;42298;53.638;9.876;2022-10-23T11:55:23;101072.50;;;21.82;58.29
56400;BME280;42298;53.638;9.876;2022-10-23T12:00:31;101060.53;;;21.85;58.35
56400;BME280;42298;53.638;9.876;2022-10-23T12:02:57;101053.94;;;21.74;57.98
56400;BME280;42298;53.638;9.876;2022-10-23T12:05:33;101047.88;;;21.72;58.03
56400;BME280;42298;53.638;9.876;2022-10-23T12:08:01;101058.81;;;21.77;58.08
56400;BME280;42298;53.638;9.876;2022-10-23T12:10:43;101055.13;;;21.73;58.15
56400;BME280;42298;53.638;9.876;2022-10-23T12:15:53;101034.56;;;21.65;59.27
56400;BME280;42298;53.638;9.876;2022-10-23T12:18:19;101022.97;;;21.67;58.87
56400;BME280;42298;53.638;9.876;2022-10-23T12:26:09;101022.81;;;21.56;58.40
56400;BME280;42298;53.638;9.876;2022-10-23T12:29:00;101024.91;;;21.37;59.18
56400;BME280;42298;53.638;9.876;2022-10-23T12:39:41;100982.00;;;21.59;59.51
56400;BME280;42298;53.638;9.876;2022-10-23T12:42:22;100982.16;;;21.69;59.46
56400;BME280;42298;53.638;9.876;2022-10-23T12:44:59;100971.59;;;21.59;59.34
56400;BME280;42298;53.638;9.876;2022-10-23T12:47:25;100971.22;;;21.35;59.18
56400;BME280;42298;53.638;9.876;2022-10-23T12:49:50;100966.34;;;21.28;59.67
56400;BME280;42298;53.638;9.876;2022-10-23T12:52:18;100954.38;;;21.31;59.70
56400;BME280;42298;53.638;9.876;2022-10-23T12:54:45;100956.47;;;21.38;59.97
56400;BME280;42298;53.638;9.876;2022-10-23T12:57:24;100956.25;;;21.50;59.43
56400;BME280;42298;53.638;9.876;2022-10-23T12:59:54;100941.91;;;21.55;59.30
56400;BME280;42298;53.638;9.876;2022-10-23T13:04:49;100931.22;;;21.34;59.65
56400;BME280;42298;53.638;9.876;2022-10-23T13:07:17;100917.56;;;21.33;60.11
56400;BME280;42298;53.638;9.876;2022-10-23T13:09:44;100914.88;;;21.40;59.95
56400;BME280;42298;53.638;9.876;2022-10-23T13:12:25;100917.88;;;21.54;59.78
56400;BME280;42298;53.638;9.876;2022-10-23T13:14:55;100917.00;;;21.50;59.50
56400;BME280;42298;53.638;9.876;2022-10-23T13:17:21;100904.09;;;21.42;59.80
56400;BME280;42298;53.638;9.876;2022-10-23T13:22:41;100903.00;;;21.50;59.78
56400;BME280;42298;53.638;9.876;2022-10-23T13:25:30;100888.13;;;21.46;59.64
56400;BME280;42298;53.638;9.876;2022-10-23T13:28:23;100894.50;;;21.43;60.25
56400;BME280;42298;53.638;9.876;2022-10-23T13:33:39;100893.44;;;21.54;60.07
56400;BME280;42298;53.638;9.876;2022-10-23T13:38:35;100859.66;;;21.44;60.21
56400;BME280;42298;53.638;9.876;2022-10-23T13:41:03;100856.50;;;21.45;60.15
56400;BME280;42298;53.638;9.876;2022-10-23T13:43:29;100851.66;;;21.42;60.22
56400;BME280;42298;53.638;9.876;2022-10-23T13:45:57;100844.81;;;21.40;60.76
56400;BME280;42298;53.638;9.876;2022-10-23T13:48:22;100846.66;;;21.29;60.41
56400;BME280;42298;53.638;9.876;2022-10-23T13:50:48;100847.78;;;21.24;60.87
56400;BME280;42298;53.638;9.876;2022-10-23T13:53:14;100843.47;;;21.30;61.16
56400;BME280;42298;53.638;9.876;2022-10-23T13:55:42;100841.03;;;21.29;60.68
56400;BME280;42298;53.638;9.876;2022-10-23T13:58:08;100838.25;;;21.29;60.50
56400;BME280;42298;53.638;9.876;2022-10-23T14:00:34;100840.09;;;21.18;60.62
56400;BME280;42298;53.638;9.876;2022-10-23T14:03:00;100838.91;;;21.19;60.61
56400;BME280;42298;53.638;9.876;2022-10-23T14:05:25;100832.03;;;21.13;60.63
56400;BME280;42298;53.638;9.876;2022-10-23T14:07:51;100826.38;;;21.09;60.60
56400;BME280;42298;53.638;9.876;2022-10-23T14:10:16;100839.44;;;21.02;60.68
56400;BME280;42298;53.638;9.876;2022-10-23T14:12:43;100840.00;;;21.11;60.96
56400;BME280;42298;53.638;9.876;2022-10-23T14:15:09;100833.06;;;21.01;61.30
56400;BME280;42298;53.638;9.876;2022-10-23T14:17:34;100826.66;;;21.01;61.81
56400;BME280;42298;53.638;9.876;2022-10-23T14:20:00;100837.16;;;21.07;61.45
56400;BME280;42298;53.638;9.876;2022-10-23T14:22:26;100826.19;;;20.99;61.52
56400;BME280;42298;53.638;9.876;2022-10-23T14:24:51;100819.06;;;21.01;61.04
56400;BME280;42298;53.638;9.876;2022-10-23T14:27:17;100813.03;;;20.99;61.34
56400;BME280;42298;53.638;9.876;2022-10-23T14:29:42;100817.06;;;21.02;61.34
56400;BME280;42298;53.638;9.876;2022-10-23T14:32:07;100826.34;;;20.83;61.38
56400;BME280;42298;53.638;9.876;2022-10-23T14:34:33;100824.69;;;20.78;62.00
56400;BME280;42298;53.638;9.876;2022-10-23T14:36:58;100825.16;;;20.84;62.13
56400;BME280;42298;53.638;9.876;2022-10-23T14:39:23;100824.09;;;20.92;62.03
56400;BME280;42298;53.638;9.876;2022-10-23T14:41:49;100809.72;;;20.94;62.13
56400;BME280;42298;53.638;9.876;2022-10-23T14:44:14;100801.75;;;20.96;61.69
56400;BME280;42298;53.638;9.876;2022-10-23T14:46:39;100799.66;;;20.89;61.76
56400;BME280;42298;53.638;9.876;2022-10-23T14:49:05;100801.31;;;20.94;61.78
56400;BME280;42298;53.638;9.876;2022-10-23T14:51:30;100801.81;;;20.99;61.83
56400;BME280;42298;53.638;9.876;2022-10-23T14:54:00;100793.78;;;20.98;62.03
56400;BME280;42298;53.638;9.876;2022-10-23T14:56:28;100780.56;;;20.95;62.22